sensor_id;sensor_type;location;lat;lon;timestamp;temperature;humidity
18577;DHT22;9418;52.694;13.294;2023-07-13T00:01:12;16.60;99.90
18577;DHT22;9418;52.694;13.294;2023-07-13T00:03:39;16.70;99.90
18577;DHT22;9418;52.694;13.294;2023-07-13T00:06:07;16.70;99.90
18577;DHT22;9418;52.694;13.294;2023-07-13T00:08:34;16.60;99.90
18577;DHT22;9418;52.694;13.294;2023-07-13T00:11:01;16.60;99.90
18577;DHT22;9418;52.694;13.294;2023-07-13T00:13:29;16.60;99.90
18577;DHT22;9418;52.694;13.294;2023-07-13T00:15:57;16.60;93.50
18577;DHT22;9418;52.694;13.294;2023-07-13T00:18:24;16.60;95.20
18577;DHT22;9418;52.694;13.294;2023-07-13T00:20:51;16.60;95.20
18577;DHT22;9418;52.694;13.294;2023-07-13T00:23:17;16.60;95.20
18577;DHT22;9418;52.694;13.294;2023-07-13T00:25:44;16.50;83.80
18577;DHT22;9418;52.694;13.294;2023-07-13T00:28:11;16.50;99.90
18577;DHT22;9418;52.694;13.294;2023-07-13T00:30:37;16.50;91.30
18577;DHT22;9418;52.694;13.294;2023-07-13T00:33:05;16.40;93.50
18577;DHT22;9418;52.694;13.294;2023-07-13T00:35:33;16.40;94.20
18577;DHT22;9418;52.694;13.294;2023-07-13T00:38:00;16.30;85.00
18577;DHT22;9418;52.694;13.294;2023-07-13T00:40:27;16.20;82.80
18577;DHT22;9418;52.694;13.294;2023-07-13T00:42:53;16.20;78.70
18577;DHT22;9418;52.694;13.294;2023-07-13T00:48:32;16.10;74.20
18577;DHT22;9418;52.694;13.294;2023-07-13T00:51:00;16.10;72.20
18577;DHT22;9418;52.694;13.294;2023-07-13T00:53:29;16.00;76.50
18577;DHT22;9418;52.694;13.294;2023-07-13T00:55:57;15.90;68.20
18577;DHT22;9418;52.694;13.294;2023-07-13T00:58:25;15.90;70.20
18577;DHT22;9418;52.694;13.294;2023-07-13T01:00:53;15.80;63.00
18577;DHT22;9418;52.694;13.294;2023-07-13T01:03:20;15.80;59.90
18577;DHT22;9418;52.694;13.294;2023-07-13T01:05:49;15.80;61.20
18577;DHT22;9418;52.694;13.294;2023-07-13T01:08:16;15.80;53.00
18577;DHT22;9418;52.694;13.294;2023-07-13T01:10:51;15.70;57.90
18577;DHT22;9418;52.694;13.294;2023-07-13T01:13:17;15.70;57.60
18577;DHT22;9418;52.694;13.294;2023-07-13T01:15:47;15.70;59.60
18577;DHT22;9418;52.694;13.294;2023-07-13T01:18:17;15.60;56.60
18577;DHT22;9418;52.694;13.294;2023-07-13T01:20:51;15.60;57.10
18577;DHT22;9418;52.694;13.294;2023-07-13T01:23:18;15.60;52.60
18577;DHT22;9418;52.694;13.294;2023-07-13T01:25:45;15.50;50.00
18577;DHT22;9418;52.694;13.294;2023-07-13T01:28:11;15.50;46.40
18577;DHT22;9418;52.694;13.294;2023-07-13T01:30:39;15.50;42.50
18577;DHT22;9418;52.694;13.294;2023-07-13T01:33:06;15.50;46.50
18577;DHT22;9418;52.694;13.294;2023-07-13T01:35:32;15.50;39.50
18577;DHT22;9418;52.694;13.294;2023-07-13T01:38:00;15.50;41.50
18577;DHT22;9418;52.694;13.294;2023-07-13T01:40:28;15.40;43.10
18577;DHT22;9418;52.694;13.294;2023-07-13T01:42:55;15.40;37.80
18577;DHT22;9418;52.694;13.294;2023-07-13T01:45:22;15.30;42.40
18577;DHT22;9418;52.694;13.294;2023-07-13T01:47:48;15.40;41.00
18577;DHT22;9418;52.694;13.294;2023-07-13T01:50:15;15.30;44.10
18577;DHT22;9418;52.694;13.294;2023-07-13T01:52:42;15.30;42.30
18577;DHT22;9418;52.694;13.294;2023-07-13T01:55:10;15.20;37.90
18577;DHT22;9418;52.694;13.294;2023-07-13T01:57:36;15.20;35.40
18577;DHT22;9418;52.694;13.294;2023-07-13T02:00:06;15.20;34.80
18577;DHT22;9418;52.694;13.294;2023-07-13T02:02:32;15.20;36.90
18577;DHT22;9418;52.694;13.294;2023-07-13T02:04:59;15.20;34.70
18577;DHT22;9418;52.694;13.294;2023-07-13T02:07:25;15.10;34.80
18577;DHT22;9418;52.694;13.294;2023-07-13T02:09:52;15.20;30.00
18577;DHT22;9418;52.694;13.294;2023-07-13T02:12:20;15.20;30.50
18577;DHT22;9418;52.694;13.294;2023-07-13T02:14:46;15.00;30.10
18577;DHT22;9418;52.694;13.294;2023-07-13T02:17:13;15.00;25.20
18577;DHT22;9418;52.694;13.294;2023-07-13T02:19:40;15.00;93.10
18577;DHT22;9418;52.694;13.294;2023-07-13T02:22:07;15.00;25.90
18577;DHT22;9418;52.694;13.294;2023-07-13T02:27:01;14.90;30.80
18577;DHT22;9418;52.694;13.294;2023-07-13T02:29:29;14.80;25.40
18577;DHT22;9418;52.694;13.294;2023-07-13T02:31:55;14.90;26.30
18577;DHT22;9418;52.694;13.294;2023-07-13T02:34:22;14.90;24.90
18577;DHT22;9418;52.694;13.294;2023-07-13T02:36:48;14.90;25.70
18577;DHT22;9418;52.694;13.294;2023-07-13T02:39:15;15.00;24.90
18577;DHT22;9418;52.694;13.294;2023-07-13T02:41:42;15.00;25.70
18577;DHT22;9418;52.694;13.294;2023-07-13T02:44:08;15.00;26.20
18577;DHT22;9418;52.694;13.294;2023-07-13T02:46:37;15.00;23.50
18577;DHT22;9418;52.694;13.294;2023-07-13T02:49:04;15.00;23.20
18577;DHT22;9418;52.694;13.294;2023-07-13T02:51:30;15.00;20.90
18577;DHT22;9418;52.694;13.294;2023-07-13T02:53:59;15.00;74.20
18577;DHT22;9418;52.694;13.294;2023-07-13T02:56:29;15.00;21.60
18577;DHT22;9418;52.694;13.294;2023-07-13T02:58:56;15.00;84.10
18577;DHT22;9418;52.694;13.294;2023-07-13T03:01:23;14.90;85.60
18577;DHT22;9418;52.694;13.294;2023-07-13T03:03:52;14.90;77.70
18577;DHT22;9418;52.694;13.294;2023-07-13T03:06:19;14.80;83.30
18577;DHT22;9418;52.694;13.294;2023-07-13T03:08:46;14.80;99.90
18577;DHT22;9418;52.694;13.294;2023-07-13T03:11:16;14.90;99.90
18577;DHT22;9418;52.694;13.294;2023-07-13T03:13:42;14.90;85.30
18577;DHT22;9418;52.694;13.294;2023-07-13T03:16:10;14.80;20.50
18577;DHT22;9418;52.694;13.294;2023-07-13T03:18:37;14.70;99.90
18577;DHT22;9418;52.694;13.294;2023-07-13T03:21:05;14.70;99.90
18577;DHT22;9418;52.694;13.294;2023-07-13T03:23:32;14.70;99.90
18577;DHT22;9418;52.694;13.294;2023-07-13T03:26:04;14.70;99.90
18577;DHT22;9418;52.694;13.294;2023-07-13T03:28:31;14.60;99.90
18577;DHT22;9418;52.694;13.294;2023-07-13T03:31:02;14.60;99.90
18577;DHT22;9418;52.694;13.294;2023-07-13T03:33:29;14.60;99.90
18577;DHT22;9418;52.694;13.294;2023-07-13T03:35:56;14.60;99.90
18577;DHT22;9418;52.694;13.294;2023-07-13T03:38:24;14.60;99.90
18577;DHT22;9418;52.694;13.294;2023-07-13T03:40:51;14.60;99.90
18577;DHT22;9418;52.694;13.294;2023-07-13T03:43:18;14.60;99.90
18577;DHT22;9418;52.694;13.294;2023-07-13T03:45:45;14.60;99.90
18577;DHT22;9418;52.694;13.294;2023-07-13T03:48:12;14.70;99.90
18577;DHT22;9418;52.694;13.294;2023-07-13T03:50:39;14.70;99.90
18577;DHT22;9418;52.694;13.294;2023-07-13T03:53:05;14.70;99.90
18577;DHT22;9418;52.694;13.294;2023-07-13T03:55:33;14.70;99.90
18577;DHT22;9418;52.694;13.294;2023-07-13T04:00:48;14.80;99.90
18577;DHT22;9418;52.694;13.294;2023-07-13T04:03:15;14.80;99.90
18577;DHT22;9418;52.694;13.294;2023-07-13T04:05:42;14.90;99.90
18577;DHT22;9418;52.694;13.294;2023-07-13T04:08:08;15.00;99.90
18577;DHT22;9418;52.694;13.294;2023-07-13T04:10:36;15.00;99.90
18577;DHT22;9418;52.694;13.294;2023-07-13T04:13:04;15.10;99.90
18577;DHT22;9418;52.694;13.294;2023-07-13T04:15:31;15.10;99.90
18577;DHT22;9418;52.694;13.294;2023-07-13T04:17:58;15.20;93.90
18577;DHT22;9418;52.694;13.294;2023-07-13T04:20:25;15.20;77.90
18577;DHT22;9418;52.694;13.294;2023-07-13T04:22:52;15.30;20.90
18577;DHT22;9418;52.694;13.294;2023-07-13T04:25:20;15.30;95.00
18577;DHT22;9418;52.694;13.294;2023-07-13T04:27:49;15.30;75.90
18577;DHT22;9418;52.694;13.294;2023-07-13T04:30:15;15.40;20.70
18577;DHT22;9418;52.694;13.294;2023-07-13T04:32:42;15.40;22.40
18577;DHT22;9418;52.694;13.294;2023-07-13T04:35:09;15.50;22.60
18577;DHT22;9418;52.694;13.294;2023-07-13T04:37:36;15.50;21.80
18577;DHT22;9418;52.694;13.294;2023-07-13T04:40:03;15.60;25.10
18577;DHT22;9418;52.694;13.294;2023-07-13T04:42:30;15.60;25.10
18577;DHT22;9418;52.694;13.294;2023-07-13T04:44:58;15.70;29.80
18577;DHT22;9418;52.694;13.294;2023-07-13T04:47:24;15.70;33.70
18577;DHT22;9418;52.694;13.294;2023-07-13T04:49:51;15.80;36.40
18577;DHT22;9418;52.694;13.294;2023-07-13T04:52:21;15.80;35.60
18577;DHT22;9418;52.694;13.294;2023-07-13T04:54:47;15.90;37.90
18577;DHT22;9418;52.694;13.294;2023-07-13T04:57:14;15.90;37.90
18577;DHT22;9418;52.694;13.294;2023-07-13T04:59:41;16.00;39.10
18577;DHT22;9418;52.694;13.294;2023-07-13T05:02:09;16.10;39.80
18577;DHT22;9418;52.694;13.294;2023-07-13T05:04:36;16.10;41.20
18577;DHT22;9418;52.694;13.294;2023-07-13T05:07:03;16.10;44.10
18577;DHT22;9418;52.694;13.294;2023-07-13T05:09:30;16.20;45.10
18577;DHT22;9418;52.694;13.294;2023-07-13T05:11:57;16.30;44.50
18577;DHT22;9418;52.694;13.294;2023-07-13T05:14:23;16.40;45.30
18577;DHT22;9418;52.694;13.294;2023-07-13T05:16:50;16.50;46.10
18577;DHT22;9418;52.694;13.294;2023-07-13T05:19:17;16.50;49.30
18577;DHT22;9418;52.694;13.294;2023-07-13T05:21:44;16.60;49.20
18577;DHT22;9418;52.694;13.294;2023-07-13T05:24:11;16.60;51.40
18577;DHT22;9418;52.694;13.294;2023-07-13T05:26:37;16.70;51.90
18577;DHT22;9418;52.694;13.294;2023-07-13T05:29:04;16.80;53.20
18577;DHT22;9418;52.694;13.294;2023-07-13T05:31:31;16.90;51.40
18577;DHT22;9418;52.694;13.294;2023-07-13T05:33:58;17.00;52.20
18577;DHT22;9418;52.694;13.294;2023-07-13T05:36:27;17.00;52.20
18577;DHT22;9418;52.694;13.294;2023-07-13T05:38:54;17.10;53.60
18577;DHT22;9418;52.694;13.294;2023-07-13T05:41:20;17.20;57.80
18577;DHT22;9418;52.694;13.294;2023-07-13T05:43:47;17.30;61.90
18577;DHT22;9418;52.694;13.294;2023-07-13T05:46:15;17.40;60.90
18577;DHT22;9418;52.694;13.294;2023-07-13T05:48:42;17.50;64.20
18577;DHT22;9418;52.694;13.294;2023-07-13T05:51:09;17.50;65.50
18577;DHT22;9418;52.694;13.294;2023-07-13T05:53:37;17.60;75.40
18577;DHT22;9418;52.694;13.294;2023-07-13T05:56:04;17.70;78.20
18577;DHT22;9418;52.694;13.294;2023-07-13T05:58:31;17.80;81.00
18577;DHT22;9418;52.694;13.294;2023-07-13T06:01:00;17.90;89.40
18577;DHT22;9418;52.694;13.294;2023-07-13T06:03:27;17.90;93.20
18577;DHT22;9418;52.694;13.294;2023-07-13T06:05:53;18.00;94.00
18577;DHT22;9418;52.694;13.294;2023-07-13T06:08:20;18.10;93.10
18577;DHT22;9418;52.694;13.294;2023-07-13T06:10:48;18.20;91.90
18577;DHT22;9418;52.694;13.294;2023-07-13T06:13:14;18.30;94.80
18577;DHT22;9418;52.694;13.294;2023-07-13T06:15:41;18.40;95.90
18577;DHT22;9418;52.694;13.294;2023-07-13T06:18:07;18.50;99.90
18577;DHT22;9418;52.694;13.294;2023-07-13T06:20:34;18.60;99.90
18577;DHT22;9418;52.694;13.294;2023-07-13T06:23:01;18.70;99.90
18577;DHT22;9418;52.694;13.294;2023-07-13T06:25:28;18.80;99.90
18577;DHT22;9418;52.694;13.294;2023-07-13T06:27:56;18.90;99.90
18577;DHT22;9418;52.694;13.294;2023-07-13T06:30:22;19.00;99.90
18577;DHT22;9418;52.694;13.294;2023-07-13T06:32:49;19.00;99.90
18577;DHT22;9418;52.694;13.294;2023-07-13T06:35:16;19.00;99.90
18577;DHT22;9418;52.694;13.294;2023-07-13T06:37:42;19.10;99.90
18577;DHT22;9418;52.694;13.294;2023-07-13T06:40:09;19.20;99.90
18577;DHT22;9418;52.694;13.294;2023-07-13T06:42:36;19.20;99.90
18577;DHT22;9418;52.694;13.294;2023-07-13T06:45:06;19.30;99.90
18577;DHT22;9418;52.694;13.294;2023-07-13T06:47:32;19.40;99.90
18577;DHT22;9418;52.694;13.294;2023-07-13T06:49:59;19.50;99.90
18577;DHT22;9418;52.694;13.294;2023-07-13T06:52:26;19.60;99.90
18577;DHT22;9418;52.694;13.294;2023-07-13T06:54:52;19.70;99.90
18577;DHT22;9418;52.694;13.294;2023-07-13T06:57:19;19.70;99.90
18577;DHT22;9418;52.694;13.294;2023-07-13T06:59:45;19.80;99.90
18577;DHT22;9418;52.694;13.294;2023-07-13T07:02:13;19.90;99.90
18577;DHT22;9418;52.694;13.294;2023-07-13T07:04:40;20.00;99.90
18577;DHT22;9418;52.694;13.294;2023-07-13T07:07:06;20.10;79.00
18577;DHT22;9418;52.694;13.294;2023-07-13T07:09:33;20.10;89.80
18577;DHT22;9418;52.694;13.294;2023-07-13T07:11:59;20.10;25.90
18577;DHT22;9418;52.694;13.294;2023-07-13T07:14:26;20.20;29.80
18577;DHT22;9418;52.694;13.294;2023-07-13T07:16:53;20.20;39.10
18577;DHT22;9418;52.694;13.294;2023-07-13T07:19:20;20.30;46.90
18577;DHT22;9418;52.694;13.294;2023-07-13T07:21:47;20.30;40.40
18577;DHT22;9418;52.694;13.294;2023-07-13T07:24:13;20.40;46.50
18577;DHT22;9418;52.694;13.294;2023-07-13T07:26:41;20.50;62.80
18577;DHT22;9418;52.694;13.294;2023-07-13T07:29:07;20.60;65.40
18577;DHT22;9418;52.694;13.294;2023-07-13T07:31:34;20.70;70.70
18577;DHT22;9418;52.694;13.294;2023-07-13T07:34:02;20.80;79.20
18577;DHT22;9418;52.694;13.294;2023-07-13T07:36:30;20.80;87.60
18577;DHT22;9418;52.694;13.294;2023-07-13T07:38:57;20.80;87.50
18577;DHT22;9418;52.694;13.294;2023-07-13T07:41:23;20.90;85.40
18577;DHT22;9418;52.694;13.294;2023-07-13T07:43:50;21.00;89.40
18577;DHT22;9418;52.694;13.294;2023-07-13T07:46:16;21.00;99.90
18577;DHT22;9418;52.694;13.294;2023-07-13T07:48:43;21.00;95.20
18577;DHT22;9418;52.694;13.294;2023-07-13T07:51:10;21.10;99.90
18577;DHT22;9418;52.694;13.294;2023-07-13T07:53:37;21.10;99.90
18577;DHT22;9418;52.694;13.294;2023-07-13T07:56:04;21.20;99.90
18577;DHT22;9418;52.694;13.294;2023-07-13T07:58:31;21.30;99.90
18577;DHT22;9418;52.694;13.294;2023-07-13T08:01:02;21.50;99.90
18577;DHT22;9418;52.694;13.294;2023-07-13T08:03:29;21.60;99.90
18577;DHT22;9418;52.694;13.294;2023-07-13T08:05:56;21.70;99.90
18577;DHT22;9418;52.694;13.294;2023-07-13T08:08:22;21.80;99.90
18577;DHT22;9418;52.694;13.294;2023-07-13T08:10:50;21.80;99.90
18577;DHT22;9418;52.694;13.294;2023-07-13T08:13:17;21.80;99.90
18577;DHT22;9418;52.694;13.294;2023-07-13T08:15:44;21.90;99.90
18577;DHT22;9418;52.694;13.294;2023-07-13T08:18:10;21.80;99.90
18577;DHT22;9418;52.694;13.294;2023-07-13T08:20:37;21.90;99.90
18577;DHT22;9418;52.694;13.294;2023-07-13T08:23:04;22.00;99.90
18577;DHT22;9418;52.694;13.294;2023-07-13T08:25:31;22.10;99.90
18577;DHT22;9418;52.694;13.294;2023-07-13T08:27:59;22.20;99.90
18577;DHT22;9418;52.694;13.294;2023-07-13T08:30:26;22.30;99.90
18577;DHT22;9418;52.694;13.294;2023-07-13T08:32:53;22.30;99.90
18577;DHT22;9418;52.694;13.294;2023-07-13T08:35:19;22.30;99.90
18577;DHT22;9418;52.694;13.294;2023-07-13T08:37:46;22.30;99.90
18577;DHT22;9418;52.694;13.294;2023-07-13T08:40:13;22.40;99.90
18577;DHT22;9418;52.694;13.294;2023-07-13T08:42:45;22.40;99.90
18577;DHT22;9418;52.694;13.294;2023-07-13T08:45:19;22.60;99.90
18577;DHT22;9418;52.694;13.294;2023-07-13T08:47:51;22.60;99.90
18577;DHT22;9418;52.694;13.294;2023-07-13T08:50:22;22.80;99.90
18577;DHT22;9418;52.694;13.294;2023-07-13T08:52:50;22.90;99.90
18577;DHT22;9418;52.694;13.294;2023-07-13T08:55:21;23.00;99.90
18577;DHT22;9418;52.694;13.294;2023-07-13T08:57:53;23.00;99.90
18577;DHT22;9418;52.694;13.294;2023-07-13T09:00:22;23.20;99.90
18577;DHT22;9418;52.694;13.294;2023-07-13T09:02:54;23.20;99.90
18577;DHT22;9418;52.694;13.294;2023-07-13T09:05:26;23.30;99.90
18577;DHT22;9418;52.694;13.294;2023-07-13T09:08:16;23.40;99.90
18577;DHT22;9418;52.694;13.294;2023-07-13T09:10:52;23.00;99.90
18577;DHT22;9418;52.694;13.294;2023-07-13T09:13:26;23.30;99.90
18577;DHT22;9418;52.694;13.294;2023-07-13T09:15:56;23.80;99.90
18577;DHT22;9418;52.694;13.294;2023-07-13T09:18:30;24.30;99.90
18577;DHT22;9418;52.694;13.294;2023-07-13T09:20:59;24.70;99.90
18577;DHT22;9418;52.694;13.294;2023-07-13T09:23:29;25.10;99.90
18577;DHT22;9418;52.694;13.294;2023-07-13T09:26:01;25.00;99.90
18577;DHT22;9418;52.694;13.294;2023-07-13T09:28:34;24.80;99.90
18577;DHT22;9418;52.694;13.294;2023-07-13T09:31:06;24.40;99.90
18577;DHT22;9418;52.694;13.294;2023-07-13T09:33:33;24.10;99.90
18577;DHT22;9418;52.694;13.294;2023-07-13T09:36:00;23.80;99.90
18577;DHT22;9418;52.694;13.294;2023-07-13T09:38:29;23.50;99.90
18577;DHT22;9418;52.694;13.294;2023-07-13T09:41:18;23.30;99.90
18577;DHT22;9418;52.694;13.294;2023-07-13T09:44:09;23.20;99.90
18577;DHT22;9418;52.694;13.294;2023-07-13T09:46:40;23.20;99.90
18577;DHT22;9418;52.694;13.294;2023-07-13T09:49:10;23.00;99.90
18577;DHT22;9418;52.694;13.294;2023-07-13T09:51:37;22.80;99.90
18577;DHT22;9418;52.694;13.294;2023-07-13T09:54:03;22.70;99.90
18577;DHT22;9418;52.694;13.294;2023-07-13T09:56:30;22.60;99.90
18577;DHT22;9418;52.694;13.294;2023-07-13T09:58:58;22.50;99.90
18577;DHT22;9418;52.694;13.294;2023-07-13T10:01:32;22.90;99.90
18577;DHT22;9418;52.694;13.294;2023-07-13T10:04:01;23.60;99.90
18577;DHT22;9418;52.694;13.294;2023-07-13T10:06:28;24.00;99.90
18577;DHT22;9418;52.694;13.294;2023-07-13T10:08:56;24.50;99.90
18577;DHT22;9418;52.694;13.294;2023-07-13T10:11:26;24.90;99.90
18577;DHT22;9418;52.694;13.294;2023-07-13T10:13:56;24.90;99.90
18577;DHT22;9418;52.694;13.294;2023-07-13T10:16:25;24.60;99.90
18577;DHT22;9418;52.694;13.294;2023-07-13T10:18:56;24.90;99.90
18577;DHT22;9418;52.694;13.294;2023-07-13T10:21:28;25.00;99.90
18577;DHT22;9418;52.694;13.294;2023-07-13T10:23:59;25.20;99.90
18577;DHT22;9418;52.694;13.294;2023-07-13T10:26:33;24.80;99.90
18577;DHT22;9418;52.694;13.294;2023-07-13T10:29:03;24.30;99.90
18577;DHT22;9418;52.694;13.294;2023-07-13T10:31:32;24.00;99.90
18577;DHT22;9418;52.694;13.294;2023-07-13T10:34:01;23.80;99.90
18577;DHT22;9418;52.694;13.294;2023-07-13T10:36:32;23.70;99.90
18577;DHT22;9418;52.694;13.294;2023-07-13T10:39:02;23.60;99.90
18577;DHT22;9418;52.694;13.294;2023-07-13T10:41:33;23.60;99.90
18577;DHT22;9418;52.694;13.294;2023-07-13T10:44:01;23.70;99.90
18577;DHT22;9418;52.694;13.294;2023-07-13T10:46:28;23.60;99.90
18577;DHT22;9418;52.694;13.294;2023-07-13T10:48:58;23.50;99.90
18577;DHT22;9418;52.694;13.294;2023-07-13T10:51:26;23.40;99.90
18577;DHT22;9418;52.694;13.294;2023-07-13T10:54:19;23.30;99.90
18577;DHT22;9418;52.694;13.294;2023-07-13T10:56:50;23.70;99.90
18577;DHT22;9418;52.694;13.294;2023-07-13T10:59:20;23.70;99.90
18577;DHT22;9418;52.694;13.294;2023-07-13T11:01:55;24.00;99.90
18577;DHT22;9418;52.694;13.294;2023-07-13T11:04:23;25.10;99.90
18577;DHT22;9418;52.694;13.294;2023-07-13T11:06:53;26.20;99.90
18577;DHT22;9418;52.694;13.294;2023-07-13T11:09:39;27.00;99.90
18577;DHT22;9418;52.694;13.294;2023-07-13T11:12:25;26.70;99.90
18577;DHT22;9418;52.694;13.294;2023-07-13T11:15:09;26.30;99.90
18577;DHT22;9418;52.694;13.294;2023-07-13T11:17:46;26.40;99.90
18577;DHT22;9418;52.694;13.294;2023-07-13T11:20:24;26.30;99.90
18577;DHT22;9418;52.694;13.294;2023-07-13T11:23:09;26.20;99.90
18577;DHT22;9418;52.694;13.294;2023-07-13T11:25:37;26.20;99.90
18577;DHT22;9418;52.694;13.294;2023-07-13T11:28:11;25.90;99.90
18577;DHT22;9418;52.694;13.294;2023-07-13T11:30:41;25.60;99.90
18577;DHT22;9418;52.694;13.294;2023-07-13T11:33:14;25.30;99.90
18577;DHT22;9418;52.694;13.294;2023-07-13T11:35:45;24.90;99.90
18577;DHT22;9418;52.694;13.294;2023-07-13T11:38:16;24.60;99.90
18577;DHT22;9418;52.694;13.294;2023-07-13T11:40:47;24.50;99.90
18577;DHT22;9418;52.694;13.294;2023-07-13T11:43:15;24.80;99.90
18577;DHT22;9418;52.694;13.294;2023-07-13T11:45:43;25.00;99.90
18577;DHT22;9418;52.694;13.294;2023-07-13T11:48:24;25.40;99.90
18577;DHT22;9418;52.694;13.294;2023-07-13T11:50:53;25.90;99.90
18577;DHT22;9418;52.694;13.294;2023-07-13T11:53:20;26.10;99.90
18577;DHT22;9418;52.694;13.294;2023-07-13T11:55:49;26.00;99.90
18577;DHT22;9418;52.694;13.294;2023-07-13T11:58:20;26.10;99.90
18577;DHT22;9418;52.694;13.294;2023-07-13T12:00:47;26.30;99.90
18577;DHT22;9418;52.694;13.294;2023-07-13T12:03:19;26.00;99.90
18577;DHT22;9418;52.694;13.294;2023-07-13T12:05:59;25.30;99.90
18577;DHT22;9418;52.694;13.294;2023-07-13T12:08:27;25.20;99.90
18577;DHT22;9418;52.694;13.294;2023-07-13T12:10:59;25.40;99.90
18577;DHT22;9418;52.694;13.294;2023-07-13T12:13:27;25.20;99.90
18577;DHT22;9418;52.694;13.294;2023-07-13T12:15:56;25.00;99.90
18577;DHT22;9418;52.694;13.294;2023-07-13T12:18:28;25.00;99.90
18577;DHT22;9418;52.694;13.294;2023-07-13T12:20:57;24.80;99.90
18577;DHT22;9418;52.694;13.294;2023-07-13T12:23:26;24.70;99.90
18577;DHT22;9418;52.694;13.294;2023-07-13T12:25:55;24.60;99.90
18577;DHT22;9418;52.694;13.294;2023-07-13T12:28:31;24.50;99.90
18577;DHT22;9418;52.694;13.294;2023-07-13T12:31:00;24.20;99.90
18577;DHT22;9418;52.694;13.294;2023-07-13T12:33:28;24.20;99.90
18577;DHT22;9418;52.694;13.294;2023-07-13T12:35:56;24.10;99.90
18577;DHT22;9418;52.694;13.294;2023-07-13T12:38:25;24.10;99.90
18577;DHT22;9418;52.694;13.294;2023-07-13T12:40:52;24.40;99.90
18577;DHT22;9418;52.694;13.294;2023-07-13T12:43:20;24.60;99.90
18577;DHT22;9418;52.694;13.294;2023-07-13T12:45:57;25.30;99.90
18577;DHT22;9418;52.694;13.294;2023-07-13T12:48:24;26.20;99.90
18577;DHT22;9418;52.694;13.294;2023-07-13T12:50:53;27.00;99.90
18577;DHT22;9418;52.694;13.294;2023-07-13T12:53:22;27.20;99.90
18577;DHT22;9418;52.694;13.294;2023-07-13T12:55:52;26.80;99.90
18577;DHT22;9418;52.694;13.294;2023-07-13T12:58:24;26.30;99.90
18577;DHT22;9418;52.694;13.294;2023-07-13T13:00:54;26.10;99.90
18577;DHT22;9418;52.694;13.294;2023-07-13T13:03:26;25.90;99.90
18577;DHT22;9418;52.694;13.294;2023-07-13T13:05:57;25.70;99.90
18577;DHT22;9418;52.694;13.294;2023-07-13T13:08:25;25.80;99.90
18577;DHT22;9418;52.694;13.294;2023-07-13T13:10:52;26.00;99.90
18577;DHT22;9418;52.694;13.294;2023-07-13T13:13:18;26.20;99.90
18577;DHT22;9418;52.694;13.294;2023-07-13T13:15:45;26.10;99.90
18577;DHT22;9418;52.694;13.294;2023-07-13T13:18:16;26.30;99.90
18577;DHT22;9418;52.694;13.294;2023-07-13T13:20:45;26.20;99.90
18577;DHT22;9418;52.694;13.294;2023-07-13T13:23:13;25.80;99.90
18577;DHT22;9418;52.694;13.294;2023-07-13T13:25:41;25.80;99.90
18577;DHT22;9418;52.694;13.294;2023-07-13T13:28:13;25.90;99.90
18577;DHT22;9418;52.694;13.294;2023-07-13T13:30:41;26.00;99.90
18577;DHT22;9418;52.694;13.294;2023-07-13T13:33:10;26.10;99.90
18577;DHT22;9418;52.694;13.294;2023-07-13T13:35:38;25.80;99.90
18577;DHT22;9418;52.694;13.294;2023-07-13T13:38:10;25.90;99.90
18577;DHT22;9418;52.694;13.294;2023-07-13T13:40:37;25.60;99.90
18577;DHT22;9418;52.694;13.294;2023-07-13T13:43:09;25.20;99.90
18577;DHT22;9418;52.694;13.294;2023-07-13T13:45:40;25.10;99.90
18577;DHT22;9418;52.694;13.294;2023-07-13T13:48:07;24.80;99.90
18577;DHT22;9418;52.694;13.294;2023-07-13T13:50:39;24.90;99.90
18577;DHT22;9418;52.694;13.294;2023-07-13T13:53:10;24.70;99.90
18577;DHT22;9418;52.694;13.294;2023-07-13T13:55:36;24.90;99.90
18577;DHT22;9418;52.694;13.294;2023-07-13T13:58:03;25.00;99.90
18577;DHT22;9418;52.694;13.294;2023-07-13T14:00:29;25.10;99.90
18577;DHT22;9418;52.694;13.294;2023-07-13T14:02:56;25.40;99.90
18577;DHT22;9418;52.694;13.294;2023-07-13T14:05:24;25.60;99.90
18577;DHT22;9418;52.694;13.294;2023-07-13T14:07:51;25.70;99.90
18577;DHT22;9418;52.694;13.294;2023-07-13T14:10:20;25.60;99.90
18577;DHT22;9418;52.694;13.294;2023-07-13T14:12:48;25.70;99.90
18577;DHT22;9418;52.694;13.294;2023-07-13T14:15:20;25.80;99.90
18577;DHT22;9418;52.694;13.294;2023-07-13T14:17:47;25.80;99.90
18577;DHT22;9418;52.694;13.294;2023-07-13T14:20:15;25.70;99.90
18577;DHT22;9418;52.694;13.294;2023-07-13T14:22:42;25.40;99.90
18577;DHT22;9418;52.694;13.294;2023-07-13T14:25:11;25.20;99.90
18577;DHT22;9418;52.694;13.294;2023-07-13T14:27:39;25.00;99.90
18577;DHT22;9418;52.694;13.294;2023-07-13T14:30:12;24.90;99.90
18577;DHT22;9418;52.694;13.294;2023-07-13T14:32:40;25.10;99.90
18577;DHT22;9418;52.694;13.294;2023-07-13T14:35:08;25.30;99.90
18577;DHT22;9418;52.694;13.294;2023-07-13T14:37:37;25.60;99.90
18577;DHT22;9418;52.694;13.294;2023-07-13T14:40:12;25.80;99.90
18577;DHT22;9418;52.694;13.294;2023-07-13T14:42:40;25.90;99.90
18577;DHT22;9418;52.694;13.294;2023-07-13T14:45:13;26.00;99.90
18577;DHT22;9418;52.694;13.294;2023-07-13T14:47:40;26.10;99.90
18577;DHT22;9418;52.694;13.294;2023-07-13T14:50:13;26.00;99.90
18577;DHT22;9418;52.694;13.294;2023-07-13T14:52:39;25.90;99.90
18577;DHT22;9418;52.694;13.294;2023-07-13T14:55:10;26.10;99.90
18577;DHT22;9418;52.694;13.294;2023-07-13T14:57:36;26.10;99.90
18577;DHT22;9418;52.694;13.294;2023-07-13T15:00:09;26.00;99.90
18577;DHT22;9418;52.694;13.294;2023-07-13T15:02:38;26.10;99.90
18577;DHT22;9418;52.694;13.294;2023-07-13T15:05:15;26.40;99.90
18577;DHT22;9418;52.694;13.294;2023-07-13T15:07:42;26.30;99.90
18577;DHT22;9418;52.694;13.294;2023-07-13T15:10:16;26.40;99.90
18577;DHT22;9418;52.694;13.294;2023-07-13T15:12:43;26.30;99.90
18577;DHT22;9418;52.694;13.294;2023-07-13T15:15:12;26.40;99.90
18577;DHT22;9418;52.694;13.294;2023-07-13T15:17:40;26.60;99.90
18577;DHT22;9418;52.694;13.294;2023-07-13T15:20:16;26.40;99.90
18577;DHT22;9418;52.694;13.294;2023-07-13T15:22:45;26.00;99.90
18577;DHT22;9418;52.694;13.294;2023-07-13T15:25:16;25.80;99.90
18577;DHT22;9418;52.694;13.294;2023-07-13T15:27:43;25.70;99.90
18577;DHT22;9418;52.694;13.294;2023-07-13T15:30:13;25.80;99.90
18577;DHT22;9418;52.694;13.294;2023-07-13T15:32:40;26.10;99.90
18577;DHT22;9418;52.694;13.294;2023-07-13T15:35:13;26.30;99.90
18577;DHT22;9418;52.694;13.294;2023-07-13T15:37:41;26.30;99.90
18577;DHT22;9418;52.694;13.294;2023-07-13T15:40:09;26.10;99.90
18577;DHT22;9418;52.694;13.294;2023-07-13T15:42:37;25.70;99.90
18577;DHT22;9418;52.694;13.294;2023-07-13T15:45:05;25.80;99.90
18577;DHT22;9418;52.694;13.294;2023-07-13T15:47:33;25.90;99.90